Whittemore, Michigan
Current Conditions -  °F | °C
As of 2:33 AM on Saturday 29 Nov 2014 (Local Time) from KOSC Reporting Station
Overcast Overcast  
Wind Chill: 21°   Ceiling: 3600
Heat Index: 28°   Visibility: 10mi
Dew Point: 24°   Wind: 7mph
Humidity: 84%   Direction: 180°S
Pressure: 29.99"   Gusts: NA
Location:  44.23°N, 83.8°W
Report Text: KOSC 290733Z AUTO 18006KT 10SM SCT018 OVC036 M02/M04 A2999 RMK AO2 T10221045
Loading
Personal Weather Stations






























Interactive Weather Map New forecast layout! Learn more

10-Day Weather Forecast

Advertisements
Track Severe Weather on mobile